KALS/ALS METAR and TAF weather

Enter ICAO airport designator
Station Type Date Time Source
KALS METAR 2020/11/25 21:52 UTC NOAA

KALS 252152Z AUTO 00000KT 10SM CLR 02/M04 A3005 RMK AO2 SLP200 T00221044


Station Type Date Time Source
KALS Decoded METAR 2020/11/25 21:52 UTC NOAA

SAN LUIS VALLEY REGIONAL, CO, United States (KALS) 37-26N 105-52W 2299M
Nov 25, 2020 - 04:52 PM EST / 2020.11.25 2152 UTC
Wind: Calm:0
Visibility: 10 mile(s):0
Sky conditions: clear
Temperature: 36.0 F (2.2 C)
Dew Point: 24.1 F (-4.4 C)
Relative Humidity: 61%
Pressure (altimeter): 30.05 in. Hg (1017 hPa)
ob: KALS 252152Z AUTO 00000KT 10SM CLR 02/M04 A3005 RMK AO2 SLP200 T00221044
cycle: 22

Station Type Date Time Source
KALS TAF 2020/11/25 18:34 UTC NOAA

TAF KALS 251731Z 2518/2618 16006KT P6SM SKC
FM252100 22007KT P6SM SKC
FM260600 VRB05KT P6SM FEW010
FM261600 18007KT P6SM FEW120 SCT200

Example: see airport list